Time;durP1;ratioP1;P1;durP2;ratioP2;P2;SDS_P1;SDS_P2;PMS_P1;PMS_P2;Temp;Humidity;BMP_temperature;BMP_pressure;BME280_temperature;BME280_humidity;BME280_pressure;Samples;Min_cycle;Max_cycle;Signal;HPM_P1;HPM_P2
2023/04/24 00:01:36;;;;;;;2.08;1.08;;;11.60;99.90;;;;;;6152248;23;20658;-70
2023/04/24 00:04:03;;;;;;;3.22;1.20;;;11.60;99.90;;;;;;6159889;23;20615;-70
2023/04/24 00:06:32;;;;;;;1.98;1.05;;;11.60;99.90;;;;;;6148310;23;20192;-70
2023/04/24 00:09:00;;;;;;;1.27;1.00;;;11.70;99.90;;;;;;6130032;23;20718;-70
2023/04/24 00:11:29;;;;;;;1.10;0.90;;;11.70;99.90;;;;;;6147891;23;20629;-70
2023/04/24 00:13:56;;;;;;;1.63;1.10;;;11.70;99.90;;;;;;6146008;23;20211;-70
2023/04/24 00:16:24;;;;;;;0.95;0.80;;;11.70;99.90;;;;;;6142779;23;20233;-70
2023/04/24 00:18:52;;;;;;;1.23;0.82;;;11.70;99.90;;;;;;6145552;23;20215;-70
2023/04/24 00:21:19;;;;;;;1.00;0.82;;;11.80;99.90;;;;;;6152526;23;20679;-70
2023/04/24 00:23:46;;;;;;;1.73;0.95;;;11.80;99.90;;;;;;6141685;23;20294;-70
2023/04/24 00:26:14;;;;;;;1.10;1.00;;;11.80;99.90;;;;;;6131434;23;20183;-71
2023/04/24 00:28:42;;;;;;;1.50;1.10;;;11.90;99.90;;;;;;6141322;23;20731;-70
2023/04/24 00:31:09;;;;;;;1.48;0.90;;;11.90;99.90;;;;;;6145077;23;20710;-70
2023/04/24 00:33:36;;;;;;;1.80;0.80;;;11.90;99.90;;;;;;6136942;23;20183;-70
2023/04/24 00:36:04;;;;;;;1.42;0.80;;;11.90;99.90;;;;;;6142914;23;20671;-70
2023/04/24 00:38:31;;;;;;;1.60;0.80;;;11.90;99.90;;;;;;6142713;23;20229;-70
2023/04/24 00:40:58;;;;;;;1.55;0.90;;;12.00;99.90;;;;;;6149471;23;20178;-70
2023/04/24 00:43:25;;;;;;;1.80;1.10;;;12.00;99.90;;;;;;6148943;23;20269;-70
2023/04/24 00:45:53;;;;;;;1.60;0.75;;;12.00;99.90;;;;;;6145196;23;20193;-70
2023/04/24 00:48:22;;;;;;;2.85;1.00;;;12.00;99.90;;;;;;6123283;23;20211;-70
2023/04/24 00:50:48;;;;;;;1.30;1.05;;;12.00;99.90;;;;;;6146650;23;20271;-70
2023/04/24 00:53:16;;;;;;;2.15;1.00;;;12.00;99.90;;;;;;6144192;23;20763;-70
2023/04/24 00:55:43;;;;;;;1.40;0.80;;;12.00;99.90;;;;;;6148528;23;20214;-70
2023/04/24 00:58:10;;;;;;;1.25;0.77;;;12.00;99.90;;;;;;6144863;23;20245;-70
2023/04/24 01:00:37;;;;;;;1.38;0.90;;;12.00;99.90;;;;;;6152969;23;20250;-70
2023/04/24 01:03:07;;;;;;;2.38;1.02;;;12.00;99.90;;;;;;6150746;23;20269;-70
2023/04/24 01:05:34;;;;;;;1.08;0.98;;;12.00;99.90;;;;;;6147578;23;20203;-71
2023/04/24 01:08:03;;;;;;;1.15;0.88;;;12.00;99.90;;;;;;6143913;23;20206;-70
2023/04/24 01:10:32;;;;;;;1.20;0.82;;;12.10;99.90;;;;;;6148982;23;20246;-70
2023/04/24 01:12:59;;;;;;;2.15;1.00;;;12.00;99.90;;;;;;6138806;23;20192;-70
2023/04/24 01:15:27;;;;;;;2.10;1.20;;;12.00;99.90;;;;;;6137955;23;20293;-70
2023/04/24 01:17:54;;;;;;;1.35;1.05;;;12.10;99.90;;;;;;6134945;23;20274;-70
2023/04/24 01:20:24;;;;;;;2.15;1.05;;;12.10;99.90;;;;;;6134192;23;20260;-70
2023/04/24 01:22:53;;;;;;;1.33;0.90;;;12.10;99.90;;;;;;6139946;23;20717;-70
2023/04/24 01:25:20;;;;;;;2.28;1.00;;;12.10;99.90;;;;;;6139317;23;20221;-70
2023/04/24 01:27:47;;;;;;;1.00;0.90;;;12.10;99.90;;;;;;6153212;23;20701;-70
2023/04/24 01:30:15;;;;;;;1.52;0.88;;;12.10;99.90;;;;;;6143388;23;20268;-70
2023/04/24 01:32:44;;;;;;;1.70;0.90;;;12.00;99.90;;;;;;6125645;23;20195;-71
2023/04/24 01:35:11;;;;;;;0.95;0.80;;;12.00;99.90;;;;;;6138339;23;20547;-70
2023/04/24 01:37:39;;;;;;;1.23;0.80;;;12.00;99.90;;;;;;6151765;23;20202;-71
2023/04/24 01:40:08;;;;;;;1.40;0.88;;;12.00;99.90;;;;;;6129595;23;20667;-71
2023/04/24 01:42:36;;;;;;;1.40;0.80;;;12.00;99.90;;;;;;6141703;23;20546;-71
2023/04/24 01:45:04;;;;;;;2.80;0.90;;;11.90;99.90;;;;;;6147562;23;20320;-71
2023/04/24 01:47:32;;;;;;;1.10;0.80;;;11.90;99.90;;;;;;6142172;23;20191;-71
2023/04/24 01:49:59;;;;;;;1.60;1.00;;;11.90;99.90;;;;;;6138389;23;20269;-70
2023/04/24 01:52:28;;;;;;;1.63;0.88;;;11.90;99.90;;;;;;6134405;23;20187;-70
2023/04/24 01:54:55;;;;;;;1.10;0.80;;;11.90;99.90;;;;;;6153447;23;20207;-70
2023/04/24 01:57:24;;;;;;;2.80;1.20;;;11.90;99.90;;;;;;6139836;23;20187;-70
2023/04/24 01:59:52;;;;;;;1.58;0.98;;;11.90;99.90;;;;;;6131466;23;20222;-71
2023/04/24 02:02:20;;;;;;;1.30;0.90;;;11.90;99.90;;;;;;6135426;23;20179;-71
2023/04/24 02:04:47;;;;;;;1.17;0.90;;;11.90;99.90;;;;;;6131248;23;20234;-71
2023/04/24 02:07:15;;;;;;;0.90;0.80;;;11.90;99.90;;;;;;6133878;23;20605;-70
2023/04/24 02:09:42;;;;;;;1.25;0.90;;;11.80;99.90;;;;;;6138863;23;20198;-70
2023/04/24 02:12:08;;;;;;;1.00;0.90;;;11.80;99.90;;;;;;6142815;23;20266;-70
2023/04/24 02:14:37;;;;;;;1.13;1.00;;;11.80;99.90;;;;;;6153839;23;20292;-70
2023/04/24 02:17:04;;;;;;;1.67;0.85;;;11.80;99.90;;;;;;6139138;23;20190;-71
2023/04/24 02:19:31;;;;;;;0.80;0.70;;;11.80;99.90;;;;;;6137107;23;20728;-71
2023/04/24 02:21:58;;;;;;;1.05;0.90;;;11.70;99.90;;;;;;6140189;23;20179;-71
2023/04/24 02:24:25;;;;;;;2.40;1.10;;;11.70;99.90;;;;;;6142273;23;20285;-70
2023/04/24 02:26:52;;;;;;;1.67;1.15;;;11.80;99.90;;;;;;6138435;23;20274;-70
2023/04/24 02:29:20;;;;;;;1.98;1.00;;;11.70;99.90;;;;;;6155139;23;20198;-70
2023/04/24 02:31:48;;;;;;;1.15;0.90;;;11.70;99.90;;;;;;6128524;23;20188;-70
2023/04/24 02:34:16;;;;;;;1.88;0.95;;;11.70;99.90;;;;;;6172652;23;20263;-70
2023/04/24 02:36:43;;;;;;;1.98;0.93;;;11.70;99.90;;;;;;6136627;23;20889;-70
2023/04/24 02:39:10;;;;;;;2.78;1.02;;;11.70;99.90;;;;;;6138243;23;20192;-71
2023/04/24 02:41:37;;;;;;;1.58;1.10;;;11.70;99.90;;;;;;6134029;23;20190;-70
2023/04/24 02:44:04;;;;;;;2.45;0.95;;;11.70;99.90;;;;;;6164959;23;20551;-71
2023/04/24 02:46:31;;;;;;;1.75;0.90;;;11.60;99.90;;;;;;6148971;23;20529;-71
2023/04/24 02:48:59;;;;;;;1.25;0.80;;;11.50;99.90;;;;;;6155202;23;20217;-71
2023/04/24 02:51:26;;;;;;;1.48;1.05;;;11.30;99.90;;;;;;6138969;23;20259;-71
2023/04/24 02:53:53;;;;;;;1.27;1.05;;;11.10;99.90;;;;;;6141448;23;20207;-71
2023/04/24 02:56:21;;;;;;;1.20;1.10;;;11.00;99.90;;;;;;6149023;23;20182;-71
2023/04/24 02:58:48;;;;;;;2.20;1.15;;;10.80;99.90;;;;;;6139865;23;20662;-71
2023/04/24 03:01:15;;;;;;;2.20;1.10;;;10.80;99.90;;;;;;6156162;23;20314;-71
2023/04/24 03:03:42;;;;;;;1.35;1.25;;;10.80;99.90;;;;;;6133306;23;20211;-71
2023/04/24 03:06:10;;;;;;;1.50;1.02;;;10.70;99.90;;;;;;6140957;23;20182;-71
2023/04/24 03:08:38;;;;;;;1.33;1.02;;;10.70;99.90;;;;;;6136159;23;20194;-71
2023/04/24 03:11:05;;;;;;;1.20;0.95;;;10.70;99.90;;;;;;6151530;23;20642;-70
2023/04/24 03:13:32;;;;;;;2.10;1.10;;;10.70;99.90;;;;;;6149571;23;20289;-70
2023/04/24 03:15:59;;;;;;;1.10;1.00;;;10.60;99.90;;;;;;6139206;23;20313;-71
2023/04/24 03:18:26;;;;;;;1.33;1.20;;;10.60;99.90;;;;;;6135892;23;20604;-70
2023/04/24 03:20:53;;;;;;;1.20;1.10;;;10.60;99.90;;;;;;6143879;23;20225;-70
2023/04/24 03:23:21;;;;;;;1.92;1.17;;;10.60;99.90;;;;;;6145956;23;20285;-71
2023/04/24 03:25:48;;;;;;;1.20;1.10;;;10.60;99.90;;;;;;6152224;23;20220;-71
2023/04/24 03:28:15;;;;;;;1.27;1.17;;;10.60;99.90;;;;;;6152717;23;20210;-71
2023/04/24 03:30:42;;;;;;;2.10;1.00;;;10.60;99.90;;;;;;6152930;23;20198;-70
2023/04/24 03:33:09;;;;;;;1.15;0.90;;;10.60;99.90;;;;;;6144265;23;20186;-71
2023/04/24 03:35:37;;;;;;;2.08;1.10;;;10.60;99.90;;;;;;6141294;23;20592;-70
2023/04/24 03:38:04;;;;;;;1.58;1.13;;;10.60;99.90;;;;;;6141843;23;20195;-70
2023/04/24 03:40:33;;;;;;;2.38;1.27;;;10.60;99.90;;;;;;6142548;23;20654;-71
2023/04/24 03:43:00;;;;;;;1.60;1.10;;;10.50;99.90;;;;;;6154470;23;20194;-71
2023/04/24 03:45:27;;;;;;;1.52;1.00;;;10.50;99.90;;;;;;6143812;23;20235;-71
2023/04/24 03:47:54;;;;;;;1.20;1.10;;;10.50;99.90;;;;;;6141958;23;20195;-71
2023/04/24 03:50:21;;;;;;;1.88;1.35;;;10.50;99.90;;;;;;6149374;23;20261;-71
2023/04/24 03:52:48;;;;;;;1.20;1.10;;;10.50;99.90;;;;;;6139056;23;20293;-71
2023/04/24 03:55:15;;;;;;;1.70;1.55;;;10.40;99.90;;;;;;6140463;23;20206;-70
2023/04/24 03:57:44;;;;;;;2.17;1.08;;;10.40;99.90;;;;;;6122419;23;20354;-71
2023/04/24 04:00:12;;;;;;;1.60;0.90;;;10.50;99.90;;;;;;6127216;23;20218;-71
2023/04/24 04:02:39;;;;;;;1.20;0.90;;;10.50;99.90;;;;;;6141200;23;20187;-71
2023/04/24 04:05:07;;;;;;;1.77;1.10;;;10.50;99.90;;;;;;6145076;23;20214;-71
2023/04/24 04:07:34;;;;;;;1.15;0.88;;;10.50;99.90;;;;;;6145066;23;20588;-71
2023/04/24 04:10:02;;;;;;;1.10;1.00;;;10.40;99.90;;;;;;6136769;23;20212;-71
2023/04/24 04:12:29;;;;;;;1.17;1.00;;;10.40;99.90;;;;;;6146779;23;20665;-71
2023/04/24 04:14:58;;;;;;;1.13;1.00;;;10.40;99.90;;;;;;6143319;23;20210;-71
2023/04/24 04:17:25;;;;;;;1.15;1.00;;;10.50;99.90;;;;;;6146972;23;20210;-71
2023/04/24 04:19:52;;;;;;;1.55;1.13;;;10.50;99.90;;;;;;6143795;23;20210;-71
2023/04/24 04:22:19;;;;;;;1.40;1.20;;;10.60;99.90;;;;;;6152438;23;20662;-71
2023/04/24 04:24:46;;;;;;;1.63;1.40;;;10.60;99.90;;;;;;6153900;23;20735;-71
2023/04/24 04:27:13;;;;;;;2.42;1.48;;;10.60;99.90;;;;;;6156532;23;20187;-70
2023/04/24 04:29:40;;;;;;;1.42;1.30;;;10.60;99.90;;;;;;6140118;23;20580;-71
2023/04/24 04:32:08;;;;;;;1.70;1.20;;;10.30;99.90;;;;;;6131004;23;20219;-71
2023/04/24 04:34:37;;;;;;;1.80;1.40;;;10.10;99.90;;;;;;6143794;23;20237;-71
2023/04/24 04:37:04;;;;;;;1.48;1.10;;;10.00;99.90;;;;;;6155181;23;20225;-71
2023/04/24 04:39:31;;;;;;;1.40;1.25;;;10.00;99.90;;;;;;6135416;23;20276;-71
2023/04/24 04:41:58;;;;;;;1.55;1.30;;;9.90;99.90;;;;;;6148169;23;20534;-71
2023/04/24 04:44:27;;;;;;;1.52;1.42;;;9.90;99.90;;;;;;6139376;23;20855;-71
2023/04/24 04:46:56;;;;;;;1.63;1.50;;;9.90;99.90;;;;;;6138122;23;20236;-70
2023/04/24 04:49:24;;;;;;;1.55;1.45;;;9.90;99.90;;;;;;6162224;23;20653;-71
2023/04/24 04:51:51;;;;;;;1.48;1.20;;;9.80;99.90;;;;;;6146062;23;20304;-71
2023/04/24 04:54:18;;;;;;;1.60;1.30;;;10.00;99.90;;;;;;6144965;23;20210;-71
2023/04/24 04:56:46;;;;;;;1.50;1.20;;;9.80;99.90;;;;;;6141824;23;20190;-71
2023/04/24 04:59:13;;;;;;;2.58;1.52;;;9.80;99.90;;;;;;6144394;23;20269;-71
2023/04/24 05:01:40;;;;;;;2.78;1.75;;;9.80;99.90;;;;;;6144357;23;20646;-71
2023/04/24 05:04:07;;;;;;;2.55;1.50;;;9.80;99.90;;;;;;6140369;23;20202;-71
2023/04/24 05:06:35;;;;;;;1.70;1.60;;;9.80;99.90;;;;;;6139646;23;20707;-71
2023/04/24 05:09:03;;;;;;;1.70;1.60;;;9.80;99.90;;;;;;6137172;23;20191;-71
2023/04/24 05:11:30;;;;;;;2.00;1.85;;;9.80;99.90;;;;;;6136069;23;20189;-71
2023/04/24 05:13:57;;;;;;;3.20;1.90;;;9.80;99.90;;;;;;6128484;23;20209;-69
2023/04/24 05:16:25;;;;;;;2.53;1.50;;;9.90;99.90;;;;;;6148189;23;20178;-69
2023/04/24 05:18:52;;;;;;;2.30;1.60;;;10.20;99.90;;;;;;6131615;23;20254;-70
2023/04/24 05:21:19;;;;;;;1.45;1.35;;;10.10;99.90;;;;;;6141510;23;20688;-69
2023/04/24 05:23:47;;;;;;;3.15;1.70;;;10.20;99.90;;;;;;6135802;23;20289;-71
2023/04/24 05:26:15;;;;;;;2.00;1.70;;;10.20;99.90;;;;;;6130473;23;20191;-71
2023/04/24 05:28:42;;;;;;;1.95;1.80;;;10.20;99.90;;;;;;6135384;23;20185;-72
2023/04/24 05:31:09;;;;;;;1.70;1.60;;;10.20;99.90;;;;;;6127017;23;20319;-71
2023/04/24 05:33:36;;;;;;;2.33;2.13;;;10.10;99.90;;;;;;6136251;23;20282;-71
2023/04/24 05:36:03;;;;;;;2.05;1.95;;;10.10;99.90;;;;;;6138435;23;20619;-72
2023/04/24 05:38:30;;;;;;;2.05;1.85;;;10.10;99.90;;;;;;6139233;23;20211;-71
2023/04/24 05:40:58;;;;;;;1.90;1.80;;;10.10;99.90;;;;;;6133722;23;20302;-71
2023/04/24 05:43:26;;;;;;;2.10;2.00;;;10.10;99.90;;;;;;6129437;23;20198;-71
2023/04/24 05:45:53;;;;;;;3.08;1.92;;;10.00;99.90;;;;;;6134417;23;21630;-71
2023/04/24 05:48:21;;;;;;;2.25;2.13;;;10.10;99.90;;;;;;6141339;23;20616;-71
2023/04/24 05:50:48;;;;;;;2.80;1.92;;;10.00;99.90;;;;;;6129676;23;20191;-71
2023/04/24 05:53:16;;;;;;;2.30;2.15;;;10.00;99.90;;;;;;6123747;23;20289;-70
2023/04/24 05:55:43;;;;;;;3.47;2.22;;;9.90;99.90;;;;;;6123775;23;20199;-70
2023/04/24 05:58:11;;;;;;;2.40;2.20;;;9.90;99.90;;;;;;6126513;23;20187;-71
2023/04/24 06:00:42;;;;;;;2.08;1.98;;;9.90;99.90;;;;;;6125348;23;20242;-71
2023/04/24 06:03:09;;;;;;;2.40;2.20;;;9.90;99.90;;;;;;6129640;23;20342;-71
2023/04/24 06:05:36;;;;;;;2.20;2.10;;;10.00;99.90;;;;;;6128486;23;20261;-71
2023/04/24 06:08:03;;;;;;;4.30;2.30;;;10.00;99.90;;;;;;6129901;23;20184;-71
2023/04/24 06:10:31;;;;;;;2.53;2.33;;;10.10;99.90;;;;;;6134813;23;20179;-68
2023/04/24 06:13:00;;;;;;;2.30;2.10;;;10.10;99.90;;;;;;6127569;23;20750;-76
2023/04/24 06:15:30;;;;;;;2.05;1.95;;;10.00;99.90;;;;;;6126712;23;20221;-74
2023/04/24 06:17:57;;;;;;;2.17;1.98;;;10.00;99.90;;;;;;6142027;23;20191;-72
2023/04/24 06:20:24;;;;;;;2.80;2.60;;;10.00;99.90;;;;;;6121932;23;20180;-71
2023/04/24 06:22:51;;;;;;;2.50;2.30;;;9.90;99.90;;;;;;6134910;23;20233;-71
2023/04/24 06:25:19;;;;;;;2.38;2.10;;;9.90;99.90;;;;;;6125521;23;20183;-71
2023/04/24 06:27:47;;;;;;;2.50;2.30;;;10.00;99.90;;;;;;6125811;23;20203;-71
2023/04/24 06:30:14;;;;;;;2.38;2.28;;;10.10;99.90;;;;;;6136104;23;20582;-71
2023/04/24 06:32:42;;;;;;;2.17;1.98;;;10.20;99.90;;;;;;6127258;23;20190;-71
2023/04/24 06:35:11;;;;;;;1.83;1.73;;;10.30;99.90;;;;;;6129651;23;20207;-71
2023/04/24 06:37:38;;;;;;;2.42;2.20;;;10.40;99.90;;;;;;6130974;23;20219;-71
2023/04/24 06:40:06;;;;;;;1.98;1.83;;;10.50;99.90;;;;;;6122774;23;20183;-70
2023/04/24 06:42:34;;;;;;;2.20;2.10;;;10.60;99.90;;;;;;6126871;23;20671;-71
2023/04/24 06:45:01;;;;;;;3.42;2.00;;;10.70;99.90;;;;;;6143916;23;20192;-71
2023/04/24 06:47:29;;;;;;;2.45;2.25;;;10.80;99.90;;;;;;6130511;23;20184;-71
2023/04/24 06:49:57;;;;;;;2.40;2.20;;;10.80;99.90;;;;;;6135864;23;20617;-71
2023/04/24 06:52:24;;;;;;;2.10;2.00;;;10.80;99.90;;;;;;6136534;23;20199;-71
2023/04/24 06:54:51;;;;;;;2.20;2.00;;;10.90;99.90;;;;;;6131380;23;20218;-71
2023/04/24 06:57:18;;;;;;;2.20;2.10;;;11.00;99.90;;;;;;6127225;23;20190;-71
2023/04/24 06:59:45;;;;;;;2.40;2.30;;;11.00;99.90;;;;;;6139981;23;20186;-71
2023/04/24 07:02:13;;;;;;;2.38;2.00;;;11.20;99.90;;;;;;6132352;23;20210;-71
2023/04/24 07:04:40;;;;;;;1.97;1.87;;;11.30;99.90;;;;;;6133780;23;20238;-71
2023/04/24 07:07:12;;;;;;;2.13;2.03;;;11.60;99.90;;;;;;6126803;23;20444;-71
2023/04/24 07:09:42;;;;;;;2.17;2.00;;;11.90;99.90;;;;;;6127646;23;20527;-70
2023/04/24 07:12:10;;;;;;;1.97;1.80;;;12.10;99.90;;;;;;6122909;23;20444;-70
2023/04/24 07:14:37;;;;;;;2.20;2.00;;;12.30;99.90;;;;;;6125746;23;20454;-71
2023/04/24 07:17:05;;;;;;;2.10;1.90;;;12.40;99.90;;;;;;6134276;23;20441;-70
2023/04/24 07:19:32;;;;;;;2.63;2.43;;;12.40;99.90;;;;;;6120134;23;20433;-70
2023/04/24 07:21:59;;;;;;;1.77;1.67;;;12.40;99.90;;;;;;6128278;23;20470;-70
2023/04/24 07:24:27;;;;;;;2.30;2.10;;;12.30;99.90;;;;;;6136142;23;20968;-73
2023/04/24 07:26:55;;;;;;;2.70;1.80;;;12.10;99.90;;;;;;6132471;23;21009;-70
2023/04/24 07:29:22;;;;;;;3.00;1.95;;;11.90;99.90;;;;;;6130565;23;20547;-70
2023/04/24 07:31:49;;;;;;;1.90;1.70;;;11.60;99.90;;;;;;6134313;23;20187;-70
2023/04/24 07:34:16;;;;;;;2.55;1.83;;;11.50;99.90;;;;;;6122864;23;20230;-72
2023/04/24 07:36:43;;;;;;;2.63;1.98;;;11.50;99.90;;;;;;6128979;23;20187;-71
2023/04/24 07:39:10;;;;;;;2.20;1.80;;;11.70;99.90;;;;;;6136299;23;20189;-71
2023/04/24 07:41:39;;;;;;;3.35;2.03;;;11.90;99.90;;;;;;6142246;23;20464;-71
2023/04/24 07:44:06;;;;;;;2.43;2.10;;;12.10;99.90;;;;;;6131171;23;20215;-71
2023/04/24 07:46:33;;;;;;;1.73;1.63;;;12.20;99.90;;;;;;6131604;23;20939;-71
2023/04/24 07:49:01;;;;;;;2.40;1.75;;;12.00;99.90;;;;;;6127819;23;20439;-71
2023/04/24 07:51:28;;;;;;;1.50;1.40;;;11.90;99.90;;;;;;6141634;23;20182;-71
2023/04/24 07:53:56;;;;;;;1.70;1.60;;;11.90;99.90;;;;;;6135838;23;20241;-71
2023/04/24 07:56:23;;;;;;;1.63;1.52;;;12.00;99.90;;;;;;6129524;23;20191;-71
2023/04/24 07:58:51;;;;;;;2.03;1.45;;;12.20;99.90;;;;;;6132925;23;20188;-71
2023/04/24 08:01:18;;;;;;;1.83;1.73;;;12.30;99.90;;;;;;6123473;23;20286;-71
2023/04/24 08:03:45;;;;;;;2.33;1.75;;;12.40;99.90;;;;;;6123275;23;20490;-71
2023/04/24 08:06:12;;;;;;;1.87;1.70;;;12.40;99.90;;;;;;6135934;23;20268;-71
2023/04/24 08:08:40;;;;;;;1.40;1.30;;;12.40;99.90;;;;;;6137525;23;20446;-74
2023/04/24 08:11:07;;;;;;;3.30;1.80;;;12.30;99.90;;;;;;6133598;23;20434;-72
2023/04/24 08:13:34;;;;;;;1.90;1.80;;;12.20;99.90;;;;;;6120812;23;20474;-71
2023/04/24 08:16:02;;;;;;;1.80;1.70;;;12.20;99.90;;;;;;6131276;23;20525;-73
2023/04/24 08:18:29;;;;;;;1.70;1.60;;;12.20;99.90;;;;;;6116695;23;20437;-72
2023/04/24 08:21:01;;;;;;;1.93;1.50;;;12.30;99.90;;;;;;6121432;23;20437;-73
2023/04/24 08:23:29;;;;;;;1.60;1.47;;;12.60;99.90;;;;;;6136758;23;20459;-72
2023/04/24 08:25:57;;;;;;;2.13;1.43;;;12.70;99.90;;;;;;6115441;23;20437;-73
2023/04/24 08:28:24;;;;;;;2.03;1.50;;;12.60;99.90;;;;;;6138225;23;20433;-72
2023/04/24 08:30:54;;;;;;;1.70;1.60;;;12.40;99.90;;;;;;6114028;23;20454;-71
2023/04/24 08:33:22;;;;;;;2.20;1.80;;;12.40;99.90;;;;;;6134307;23;20956;-72
2023/04/24 08:35:50;;;;;;;1.70;1.60;;;12.30;99.90;;;;;;6131297;23;20429;-72
2023/04/24 08:38:17;;;;;;;2.00;1.77;;;12.40;99.90;;;;;;6123721;23;20429;-72
2023/04/24 08:40:45;;;;;;;1.77;1.43;;;12.60;99.90;;;;;;6127800;23;20466;-72
2023/04/24 08:43:14;;;;;;;1.90;1.37;;;12.50;99.90;;;;;;6131495;23;20498;-72
2023/04/24 08:45:41;;;;;;;1.40;1.30;;;12.80;99.90;;;;;;6127177;23;20587;-72
2023/04/24 08:48:09;;;;;;;1.40;1.30;;;13.00;99.90;;;;;;6130129;23;20433;-72
2023/04/24 08:50:38;;;;;;;1.37;1.20;;;13.40;99.90;;;;;;6124434;23;20463;-72
2023/04/24 08:53:07;;;;;;;1.80;1.30;;;13.80;99.90;;;;;;6135047;23;20982;-72
2023/04/24 08:55:35;;;;;;;1.57;1.20;;;13.60;99.90;;;;;;6121311;23;20502;-72
2023/04/24 08:58:03;;;;;;;1.87;1.30;;;13.20;99.90;;;;;;6121783;23;20471;-71
2023/04/24 09:00:31;;;;;;;1.50;1.30;;;12.70;99.90;;;;;;6125118;23;20436;-70
2023/04/24 09:02:59;;;;;;;1.60;1.50;;;12.30;99.90;;;;;;6124658;23;20470;-70
2023/04/24 09:05:27;;;;;;;1.50;1.20;;;12.20;99.90;;;;;;6143503;23;20432;-70
2023/04/24 09:07:57;;;;;;;3.15;1.55;;;12.20;99.90;;;;;;6121904;23;20266;-69
2023/04/24 09:10:26;;;;;;;1.40;1.27;;;12.00;99.90;;;;;;6123744;23;20207;-70
2023/04/24 09:12:53;;;;;;;1.58;1.33;;;12.10;99.90;;;;;;6122436;23;20253;-70
2023/04/24 09:15:21;;;;;;;1.73;1.50;;;12.10;99.90;;;;;;6119129;23;20243;-70
2023/04/24 09:17:48;;;;;;;2.23;1.60;;;12.20;99.90;;;;;;6125677;23;20441;-71
2023/04/24 09:20:15;;;;;;;2.03;1.60;;;12.70;99.90;;;;;;6118705;23;20517;-70
2023/04/24 09:22:43;;;;;;;2.13;1.47;;;12.50;99.90;;;;;;6111154;23;20531;-70
2023/04/24 09:25:12;;;;;;;1.83;1.30;;;12.30;99.90;;;;;;6102543;23;20659;-70
2023/04/24 09:27:43;;;;;;;2.85;1.83;;;12.10;99.90;;;;;;6132371;23;20186;-69
2023/04/24 09:30:12;;;;;;;1.50;1.10;;;11.80;99.90;;;;;;6129799;23;20250;-69
2023/04/24 09:32:38;;;;;;;1.58;1.10;;;11.60;99.90;;;;;;6123281;23;20207;-70
2023/04/24 09:35:09;;;;;;;1.75;1.10;;;11.50;99.90;;;;;;6118660;23;20190;-71
2023/04/24 09:37:37;;;;;;;1.45;1.25;;;11.50;99.90;;;;;;6130235;23;20262;-71
2023/04/24 09:40:17;;;;;;;1.48;1.10;;;11.50;99.90;;;;;;6126260;23;20528;-71
2023/04/24 09:42:51;;;;;;;3.17;2.38;;;11.80;99.90;;;;;;6126632;23;20214;-71
2023/04/24 09:45:19;;;;;;;3.83;1.47;;;12.00;99.90;;;;;;6139734;23;20215;-70
2023/04/24 09:47:46;;;;;;;2.20;1.30;;;12.50;99.90;;;;;;6126345;23;20486;-71
2023/04/24 09:50:15;;;;;;;1.90;1.27;;;12.80;99.90;;;;;;6118909;23;20466;-70
2023/04/24 09:52:44;;;;;;;1.30;1.20;;;13.00;99.90;;;;;;6137756;23;20485;-70
2023/04/24 09:55:13;;;;;;;1.90;1.40;;;13.00;99.90;;;;;;6135218;23;20447;-70
2023/04/24 09:57:50;;;;;;;1.70;1.43;;;12.90;99.90;;;;;;6124581;23;20434;-70
2023/04/24 10:00:23;;;;;;;1.50;1.40;;;12.60;99.90;;;;;;6137491;23;20444;-70
2023/04/24 10:03:01;;;;;;;1.95;1.30;;;12.30;99.90;;;;;;6130020;23;20513;-70
2023/04/24 10:05:31;;;;;;;1.77;1.17;;;12.10;99.90;;;;;;6126995;23;20211;-70
2023/04/24 10:08:01;;;;;;;1.63;1.37;;;12.20;99.90;;;;;;6128021;23;20187;-70
2023/04/24 10:10:28;;;;;;;3.87;1.50;;;12.40;99.90;;;;;;6122883;23;20438;-70
2023/04/24 10:12:57;;;;;;;3.17;1.60;;;12.70;99.90;;;;;;6131172;23;20456;-70
2023/04/24 10:15:26;;;;;;;1.30;1.20;;;12.90;99.90;;;;;;6130955;23;20433;-69
2023/04/24 10:17:54;;;;;;;1.87;1.70;;;12.80;99.90;;;;;;6134634;23;20429;-69
2023/04/24 10:20:23;;;;;;;3.33;1.40;;;12.80;99.90;;;;;;6140825;23;20437;-69
2023/04/24 10:22:52;;;;;;;1.50;1.40;;;12.60;99.90;;;;;;6125688;23;20473;-70
2023/04/24 10:25:21;;;;;;;1.90;1.30;;;12.30;99.90;;;;;;6123419;23;20513;-74
2023/04/24 10:27:49;;;;;;;2.45;1.65;;;12.10;99.90;;;;;;6123787;23;20551;-70
2023/04/24 10:30:18;;;;;;;2.17;1.40;;;12.00;99.90;;;;;;6125855;23;20713;-70
2023/04/24 10:32:46;;;;;;;3.13;1.50;;;11.90;99.90;;;;;;6128508;23;20230;-70
2023/04/24 10:35:15;;;;;;;2.90;1.50;;;11.80;99.90;;;;;;6118014;23;20180;-70
2023/04/24 10:37:45;;;;;;;2.00;1.58;;;11.80;99.90;;;;;;6116263;23;20586;-69
2023/04/24 10:40:18;;;;;;;2.17;1.45;;;11.70;99.90;;;;;;6113214;23;20271;-70
2023/04/24 10:42:48;;;;;;;2.35;1.50;;;11.60;99.90;;;;;;6118365;23;20876;-70
2023/04/24 10:45:21;;;;;;;2.10;1.60;;;11.50;99.90;;;;;;6114587;23;20189;-69
2023/04/24 10:47:59;;;;;;;1.73;1.63;;;11.50;99.90;;;;;;6126251;23;20221;-70
2023/04/24 10:50:28;;;;;;;1.73;1.63;;;11.60;99.90;;;;;;6134245;23;20178;-70
2023/04/24 10:53:06;;;;;;;1.83;1.73;;;11.60;99.90;;;;;;6141905;23;20683;-70
2023/04/24 10:55:45;;;;;;;2.22;1.67;;;11.70;99.90;;;;;;6133644;23;20486;-70
2023/04/24 10:58:12;;;;;;;2.30;1.67;;;11.90;99.90;;;;;;6127007;23;20269;-71
2023/04/24 11:00:42;;;;;;;1.83;1.73;;;12.10;99.90;;;;;;6135784;23;20512;-70
2023/04/24 11:03:24;;;;;;;2.15;1.55;;;12.20;99.90;;;;;;6136349;23;20812;-70
2023/04/24 11:06:03;;;;;;;2.30;1.50;;;12.30;99.90;;;;;;6125419;23;20221;-70
2023/04/24 11:08:32;;;;;;;1.53;1.40;;;12.70;99.90;;;;;;6127730;23;21078;-72
2023/04/24 11:11:02;;;;;;;2.30;1.60;;;12.90;99.90;;;;;;6137006;23;20434;-70
2023/04/24 11:14:06;;;;;;;1.40;1.30;;;13.00;99.90;;;;;;6128558;23;20462;-70
2023/04/24 11:16:38;;;;;;;2.13;1.70;;;13.00;99.90;;;;;;6139563;23;20440;-70
2023/04/24 11:19:06;;;;;;;1.60;1.50;;;12.80;99.90;;;;;;6122188;23;20459;-70
2023/04/24 11:21:40;;;;;;;2.80;1.73;;;12.40;99.90;;;;;;6141834;23;20511;-71
2023/04/24 11:24:25;;;;;;;2.63;1.60;;;13.00;99.90;;;;;;6135725;23;20495;-71
2023/04/24 11:26:54;;;;;;;2.17;1.83;;;12.90;99.90;;;;;;6117530;23;20445;-71
2023/04/24 11:29:22;;;;;;;2.07;1.60;;;13.00;99.90;;;;;;6119727;23;20466;-73
2023/04/24 11:31:51;;;;;;;1.70;1.60;;;13.10;99.90;;;;;;6119463;23;20433;-70
2023/04/24 11:34:19;;;;;;;1.70;1.60;;;13.10;99.90;;;;;;6129343;23;20465;-70
2023/04/24 11:36:47;;;;;;;1.80;1.70;;;13.10;99.90;;;;;;6136206;23;20436;-70
2023/04/24 11:39:14;;;;;;;2.00;1.90;;;13.10;99.90;;;;;;6136585;23;20964;-70
2023/04/24 11:41:42;;;;;;;2.37;1.70;;;13.10;99.90;;;;;;6119736;23;20436;-70
2023/04/24 11:44:11;;;;;;;2.13;2.03;;;13.20;99.90;;;;;;6120928;23;20474;-70
2023/04/24 11:46:39;;;;;;;2.60;1.80;;;13.10;99.90;;;;;;6123125;23;20524;-70
2023/04/24 11:49:08;;;;;;;2.00;1.87;;;12.80;99.90;;;;;;6127605;23;20537;-69
2023/04/24 11:51:36;;;;;;;2.10;1.67;;;12.40;99.90;;;;;;6132078;23;20643;-69
2023/04/24 11:54:03;;;;;;;1.53;1.40;;;12.20;99.90;;;;;;6121097;23;20956;-70
2023/04/24 11:56:30;;;;;;;2.03;1.67;;;12.10;99.90;;;;;;6130872;23;20437;-70
2023/04/24 11:58:57;;;;;;;1.40;1.30;;;12.20;99.90;;;;;;6116988;23;20199;-69
2023/04/24 12:01:24;;;;;;;1.93;1.13;;;12.40;99.90;;;;;;6130809;23;21123;-70
2023/04/24 12:03:59;;;;;;;1.40;1.30;;;12.60;99.90;;;;;;6128651;23;20565;-70
2023/04/24 12:06:28;;;;;;;1.63;1.53;;;12.70;99.90;;;;;;6134913;23;20498;-69
2023/04/24 12:08:57;;;;;;;1.90;1.50;;;12.70;99.90;;;;;;6133401;23;20822;-70
2023/04/24 12:11:25;;;;;;;1.93;1.83;;;12.60;99.90;;;;;;6123674;23;20184;-70
2023/04/24 12:13:52;;;;;;;3.60;1.60;;;12.60;99.90;;;;;;6135978;23;20456;-70
2023/04/24 12:16:19;;;;;;;1.73;1.63;;;12.60;99.90;;;;;;6119929;23;20587;-70
2023/04/24 12:18:46;;;;;;;2.50;1.67;;;12.60;99.90;;;;;;6142500;23;20440;-70
2023/04/24 12:21:18;;;;;;;2.00;1.80;;;12.50;99.90;;;;;;6124790;23;20462;-70
2023/04/24 12:23:47;;;;;;;2.10;1.90;;;12.50;99.90;;;;;;6124334;23;20497;-69
2023/04/24 12:26:18;;;;;;;1.70;1.60;;;12.50;99.90;;;;;;6120342;23;20528;-69
2023/04/24 12:28:48;;;;;;;1.60;1.50;;;12.20;99.90;;;;;;6126343;23;20187;-70
2023/04/24 12:31:16;;;;;;;2.13;1.70;;;12.10;99.90;;;;;;6128198;23;20555;-70
2023/04/24 12:33:43;;;;;;;1.67;1.50;;;12.00;99.90;;;;;;6105946;23;20453;-69
2023/04/24 12:36:13;;;;;;;1.70;1.60;;;12.10;99.90;;;;;;6099411;23;20505;-69
2023/04/24 12:38:44;;;;;;;1.73;1.60;;;12.50;99.90;;;;;;6100576;23;21967;-70
2023/04/24 12:41:14;;;;;;;2.00;1.43;;;12.20;99.90;;;;;;6104119;23;20786;-70
2023/04/24 12:43:53;;;;;;;2.87;1.87;;;12.30;99.90;;;;;;6107512;23;20473;-70
2023/04/24 12:46:20;;;;;;;2.25;2.05;;;12.30;99.90;;;;;;6110663;23;20521;-69
2023/04/24 12:48:47;;;;;;;1.80;1.70;;;12.30;99.90;;;;;;6124054;23;20183;-70
2023/04/24 12:51:14;;;;;;;1.50;1.40;;;12.30;99.90;;;;;;6123339;23;20656;-70
2023/04/24 12:53:41;;;;;;;2.03;1.50;;;12.30;99.90;;;;;;6118745;23;20470;-70